Time;durP1;ratioP1;P1;durP2;ratioP2;P2;SDS_P1;SDS_P2;PMS_P1;PMS_P2;Temp;Humidity;BMP_temperature;BMP_pressure;BME280_temperature;BME280_humidity;BME280_pressure;Samples;Min_cycle;Max_cycle;Signal;HPM_P1;HPM_P2
2021/09/07 00:00:04;;;;;;;;;12.67;12.00;;;;;19.25;62.00;101713.47;5060647;28;45227;-74
2021/09/07 00:02:30;;;;;;;;;16.67;16.67;;;;;19.26;62.44;101720.50;5060679;28;45275;-75
2021/09/07 00:04:56;;;;;;;;;15.33;13.67;;;;;19.23;62.47;101718.25;5060534;28;45249;-74
2021/09/07 00:07:22;;;;;;;;;13.00;13.00;;;;;19.21;62.25;101721.13;5060243;28;45275;-74
2021/09/07 00:09:48;;;;;;;;;16.33;15.33;;;;;19.16;62.46;101715.56;5060220;28;45280;-75
2021/09/07 00:12:13;;;;;;;;;14.67;14.67;;;;;19.11;62.83;101726.97;5060262;28;45414;-75
2021/09/07 00:14:39;;;;;;;;;14.00;14.00;;;;;19.04;62.83;101724.22;5058891;28;46270;-74
2021/09/07 00:17:04;;;;;;;;;17.67;15.67;;;;;18.98;62.98;101727.78;5060175;28;45291;-74
2021/09/07 00:19:29;;;;;;;;;16.67;15.67;;;;;18.95;63.16;101721.94;5060331;28;45369;-75
2021/09/07 00:21:55;;;;;;;;;16.00;13.67;;;;;18.89;63.30;101718.22;5058872;28;45291;-75
2021/09/07 00:24:20;;;;;;;;;14.00;13.33;;;;;18.89;63.88;101719.03;5060324;28;45363;-75
2021/09/07 00:26:46;;;;;;;;;17.00;17.00;;;;;18.89;63.23;101719.03;5060141;28;45767;-74
2021/09/07 00:29:11;;;;;;;;;16.33;13.67;;;;;18.88;63.17;101716.53;5060119;28;45298;-74
2021/09/07 00:31:36;;;;;;;;;14.67;13.67;;;;;18.88;63.40;101711.16;5039337;28;45286;-75
2021/09/07 00:34:02;;;;;;;;;12.67;12.67;;;;;18.86;63.72;101718.63;5045578;28;45401;-75
2021/09/07 00:36:27;;;;;;;;;15.00;14.00;;;;;18.79;63.48;101713.22;5059719;28;46313;-74
2021/09/07 00:38:52;;;;;;;;;15.67;14.67;;;;;18.76;64.01;101708.25;5059608;28;45224;-74
2021/09/07 00:41:18;;;;;;;;;17.00;14.67;;;;;18.73;63.67;101714.88;5060087;28;45192;-75
2021/09/07 00:43:43;;;;;;;;;13.67;13.67;;;;;18.73;63.86;101714.88;5058276;28;47309;-74
2021/09/07 00:46:08;;;;;;;;;13.67;13.67;;;;;18.60;64.13;101682.56;5059720;28;45284;-75
2021/09/07 00:48:34;;;;;;;;;13.33;12.67;;;;;18.72;63.68;101707.00;5059705;28;45145;-75
2021/09/07 00:50:59;;;;;;;;;15.67;14.33;;;;;18.71;64.19;101699.97;5058633;28;45300;-74
2021/09/07 00:53:25;;;;;;;;;16.00;15.67;;;;;18.68;64.08;101691.25;5059408;28;45507;-74
2021/09/07 00:55:51;;;;;;;;;19.67;16.33;;;;;18.68;64.32;101687.75;5059613;28;45260;-74
2021/09/07 00:58:19;;;;;;;;;13.00;13.00;;;;;18.66;64.90;101698.75;5061548;28;45387;-75
2021/09/07 01:00:45;;;;;;;;;14.67;13.33;;;;;18.55;64.30;101692.09;5063289;28;45378;-75
2021/09/07 01:03:10;;;;;;;;;16.00;16.00;;;;;18.52;63.89;101688.97;5063041;28;45485;-75
2021/09/07 01:05:36;;;;;;;;;14.33;13.67;;;;;18.52;64.14;101697.88;5063247;28;45295;-75
2021/09/07 01:08:01;;;;;;;;;14.33;13.33;;;;;18.52;64.57;101689.81;5062857;28;45307;-75
2021/09/07 01:10:27;;;;;;;;;15.00;14.00;;;;;18.51;64.29;101690.84;5062980;28;45182;-75
2021/09/07 01:12:53;;;;;;;;;17.00;16.00;;;;;18.46;64.67;101682.53;5062961;28;45426;-75
2021/09/07 01:15:19;;;;;;;;;14.00;13.00;;;;;18.45;64.62;101682.75;5061472;28;47182;-75
2021/09/07 01:17:44;;;;;;;;;16.33;16.33;;;;;18.41;64.95;101677.75;5062886;28;45266;-74
2021/09/07 01:20:10;;;;;;;;;16.33;15.67;;;;;18.34;65.19;101674.25;5062987;28;45287;-75
2021/09/07 01:22:36;;;;;;;;;14.00;14.00;;;;;18.31;65.47;101679.22;5061482;28;45544;-74
2021/09/07 01:25:01;;;;;;;;;14.33;13.00;;;;;18.24;65.43;101673.81;5062827;28;45142;-75
2021/09/07 01:27:27;;;;;;;;;17.00;15.33;;;;;18.21;65.54;101674.19;5062815;28;45280;-75
2021/09/07 01:29:52;;;;;;;;;16.33;16.33;;;;;18.20;65.87;101669.88;5067722;28;45353;-75
2021/09/07 01:32:18;;;;;;;;;16.33;16.00;;;;;18.17;66.24;101668.41;5082917;28;45434;-75
2021/09/07 01:34:44;;;;;;;;;13.33;13.33;;;;;18.09;66.01;101666.69;5082737;28;46083;-75
2021/09/07 01:37:10;;;;;;;;;15.00;15.00;;;;;18.08;65.59;101666.91;5082769;28;45299;-75
2021/09/07 01:39:36;;;;;;;;;13.33;13.33;;;;;18.07;65.70;101673.31;5083032;27;45282;-75
2021/09/07 01:42:03;;;;;;;;;14.67;14.67;;;;;18.06;65.54;101664.41;5082968;28;45227;-75
2021/09/07 01:44:28;;;;;;;;;18.00;17.00;;;;;18.06;65.60;101667.09;5082384;28;46377;-75
2021/09/07 01:46:56;;;;;;;;;15.33;14.00;;;;;18.00;65.68;101662.53;5082838;28;45290;-76
2021/09/07 01:49:21;;;;;;;;;15.33;15.33;;;;;17.95;65.75;101659.59;5083006;28;45199;-75
2021/09/07 01:51:47;;;;;;;;;15.00;13.00;;;;;17.92;65.78;101655.47;5082419;28;45553;-74
2021/09/07 01:54:14;;;;;;;;;15.67;15.67;;;;;17.87;66.51;101657.94;5082599;28;46246;-75
2021/09/07 01:56:40;;;;;;;;;18.00;17.33;;;;;17.84;66.15;101659.16;5081366;28;45295;-75
2021/09/07 01:59:06;;;;;;;;;14.67;14.67;;;;;17.83;67.11;101654.81;5082626;28;45410;-75
2021/09/07 02:01:32;;;;;;;;;14.67;14.67;;;;;17.76;66.88;101657.47;5082601;28;45308;-74
2021/09/07 02:03:58;;;;;;;;;15.33;15.33;;;;;17.71;67.03;101659.94;5082422;27;46037;-75
2021/09/07 02:06:23;;;;;;;;;17.67;15.33;;;;;17.72;66.89;101672.34;5082452;28;45599;-75
2021/09/07 02:08:49;;;;;;;;;14.67;14.33;;;;;17.72;66.70;101666.94;5082380;28;45216;-75
2021/09/07 02:11:14;;;;;;;;;14.00;14.00;;;;;17.69;67.52;101667.34;5082268;27;45199;-75
2021/09/07 02:13:40;;;;;;;;;15.67;14.67;;;;;17.69;67.02;101661.16;5082212;28;46396;-75
2021/09/07 02:16:05;;;;;;;;;14.67;14.00;;;;;17.69;67.37;101663.84;5082667;28;45215;-75
2021/09/07 02:18:30;;;;;;;;;13.67;12.67;;;;;17.72;66.76;101669.66;5082548;28;45381;-75
2021/09/07 02:20:56;;;;;;;;;17.67;16.67;;;;;17.70;67.30;101652.91;5082233;27;45442;-75
2021/09/07 02:23:21;;;;;;;;;20.00;17.67;;;;;17.72;66.92;101666.16;5081931;28;46304;-75
2021/09/07 02:25:47;;;;;;;;;16.67;16.67;;;;;17.67;66.97;101670.28;5082205;28;45353;-75
2021/09/07 02:28:13;;;;;;;;;14.33;12.33;;;;;17.64;67.32;101664.44;5082322;28;45214;-74
2021/09/07 02:30:38;;;;;;;;;18.00;16.00;;;;;17.64;67.21;101657.22;5070535;28;45363;-75
2021/09/07 02:33:04;;;;;;;;;16.00;16.00;;;;;17.59;67.35;101661.50;5061525;28;45255;-74
2021/09/07 02:35:33;;;;;;;;;16.33;15.00;;;;;17.57;67.87;101658.22;5061575;28;45353;-75
2021/09/07 02:37:59;;;;;;;;;18.33;18.33;;;;;17.52;67.71;101648.06;5061666;28;45224;-75
2021/09/07 02:40:25;;;;;;;;;18.33;15.00;;;;;17.54;67.10;101643.31;5060157;28;47464;-75
2021/09/07 02:42:50;;;;;;;;;18.33;17.33;;;;;17.54;67.38;101644.13;5061540;28;46273;-74
2021/09/07 02:45:16;;;;;;;;;16.67;15.33;;;;;17.51;67.15;101635.66;5061765;28;45227;-74
2021/09/07 02:47:41;;;;;;;;;16.67;15.00;;;;;17.46;67.32;101636.25;5062026;28;45224;-75
2021/09/07 02:50:13;;;;;;;;;16.67;16.67;;;;;17.45;67.17;101629.19;5061554;28;45426;-75
2021/09/07 02:52:38;;;;;;;;;17.33;15.33;;;;;17.49;67.78;101638.53;5061166;28;46112;-75
2021/09/07 02:55:05;;;;;;;;;16.00;15.33;;;;;17.50;67.85;101632.13;5061628;28;45293;-74
2021/09/07 02:57:31;;;;;;;;;14.00;14.00;;;;;17.51;67.76;101622.22;5061689;28;45258;-74
2021/09/07 02:59:56;;;;;;;;;16.33;15.67;;;;;17.53;67.82;101618.28;5061466;28;45213;-75
2021/09/07 03:02:22;;;;;;;;;20.67;18.00;;;;;17.56;67.35;101613.53;5060088;28;47095;-74
2021/09/07 03:04:49;;;;;;;;;15.67;15.67;;;;;17.58;67.51;101614.19;5061416;28;45308;-74
2021/09/07 03:07:14;;;;;;;;;16.67;16.67;;;;;17.56;67.27;101610.84;5061365;28;45334;-74
2021/09/07 03:09:39;;;;;;;;;18.33;16.67;;;;;17.55;67.12;101615.41;5061064;28;45366;-75
2021/09/07 03:12:05;;;;;;;;;16.67;15.67;;;;;17.50;67.17;101617.84;5061003;28;45334;-75
2021/09/07 03:14:30;;;;;;;;;14.00;14.00;;;;;17.47;67.73;101619.09;5061079;28;45307;-75
2021/09/07 03:16:56;;;;;;;;;19.33;17.00;;;;;17.44;67.68;101611.41;5061405;28;45407;-75
2021/09/07 03:19:21;;;;;;;;;15.67;15.67;;;;;17.44;67.49;101614.09;5061102;28;45473;-75
2021/09/07 03:21:46;;;;;;;;;19.67;18.67;;;;;17.44;67.41;101614.09;5060191;28;45332;-75
2021/09/07 03:24:12;;;;;;;;;18.67;18.00;;;;;17.44;67.35;101606.03;5061063;28;45255;-74
2021/09/07 03:26:37;;;;;;;;;15.33;14.33;;;;;17.42;67.77;101606.25;5061123;28;45182;-75
2021/09/07 03:29:03;;;;;;;;;15.00;14.00;;;;;17.38;67.71;101602.31;5060977;28;45177;-74
2021/09/07 03:31:28;;;;;;;;;18.00;18.00;;;;;17.37;67.71;101602.50;5078909;28;45334;-75
2021/09/07 03:33:54;;;;;;;;;19.33;18.00;;;;;17.29;67.58;101603.50;5081026;28;45141;-75
2021/09/07 03:36:19;;;;;;;;;15.67;13.67;;;;;17.24;68.09;101609.44;5081277;28;45212;-74
2021/09/07 03:38:44;;;;;;;;;17.33;16.33;;;;;17.13;68.27;101585.84;5080811;28;45282;-75
2021/09/07 03:41:12;;;;;;;;;20.00;20.00;;;;;17.12;68.14;101597.63;5062681;28;46585;-75
2021/09/07 03:43:37;;;;;;;;;17.67;17.00;;;;;17.09;68.40;101596.13;5081023;28;45344;-74
2021/09/07 03:46:02;;;;;;;;;15.67;15.00;;;;;17.10;68.99;101591.59;5079597;28;45338;-74
2021/09/07 03:48:29;;;;;;;;;19.00;19.00;;;;;17.08;68.44;101594.50;5080918;28;45314;-74
2021/09/07 03:50:54;;;;;;;;;19.67;19.00;;;;;17.06;68.79;101593.00;5080991;27;45357;-75
2021/09/07 03:53:19;;;;;;;;;17.00;17.00;;;;;17.08;68.74;101588.28;5080406;28;45271;-75
2021/09/07 03:55:45;;;;;;;;;21.00;18.33;;;;;17.06;68.74;101595.69;5081086;28;45225;-75
2021/09/07 03:58:10;;;;;;;;;17.33;15.33;;;;;17.02;68.95;101592.56;5080632;28;45491;-75
2021/09/07 04:00:35;;;;;;;;;16.33;16.33;;;;;17.05;68.76;101594.84;5080791;28;46015;-75
2021/09/07 04:03:01;;;;;;;;;20.00;20.00;;;;;16.98;69.33;101596.66;5079379;28;45783;-74
2021/09/07 04:05:27;;;;;;;;;17.33;16.33;;;;;16.96;68.99;101596.03;5080894;28;45687;-74
2021/09/07 04:07:52;;;;;;;;;22.00;21.33;;;;;16.96;69.10;101596.03;5080388;28;45298;-74
2021/09/07 04:10:17;;;;;;;;;22.00;21.33;;;;;16.96;68.93;101596.84;5079043;28;48065;-75
2021/09/07 04:12:43;;;;;;;;;16.67;16.67;;;;;16.94;68.47;101596.22;5080752;28;45326;-75
2021/09/07 04:15:09;;;;;;;;;18.33;18.33;;;;;16.90;68.79;101598.47;5080771;28;45730;-75
2021/09/07 04:17:34;;;;;;;;;17.67;16.33;;;;;16.83;69.14;101600.28;5080818;28;45222;-75
2021/09/07 04:19:59;;;;;;;;;21.00;19.00;;;;;16.82;69.23;101603.97;5080611;27;45209;-75
2021/09/07 04:22:25;;;;;;;;;22.00;22.00;;;;;16.86;69.50;101609.81;5080385;28;45220;-75
2021/09/07 04:24:50;;;;;;;;;19.67;19.33;;;;;16.79;69.44;101607.06;5080770;28;45278;-75
2021/09/07 04:27:16;;;;;;;;;19.00;17.33;;;;;16.85;69.53;101613.50;5080417;28;45501;-75
2021/09/07 04:29:41;;;;;;;;;23.00;20.67;;;;;16.86;69.27;101612.47;5075815;28;46826;-75
2021/09/07 04:32:06;;;;;;;;;16.67;16.67;;;;;16.85;69.16;101613.50;5060015;28;45206;-75
2021/09/07 04:34:32;;;;;;;;;19.67;19.67;;;;;16.81;69.30;101604.16;5060033;28;45322;-75
2021/09/07 04:36:57;;;;;;;;;20.00;18.67;;;;;16.83;69.45;101613.72;5059988;28;45481;-75
2021/09/07 04:39:22;;;;;;;;;21.00;20.67;;;;;16.82;68.70;101616.59;5058655;28;47072;-74
2021/09/07 04:41:48;;;;;;;;;20.33;20.00;;;;;16.78;69.20;101618.81;5060687;28;45314;-75
2021/09/07 04:44:14;;;;;;;;;20.33;19.67;;;;;16.75;69.53;101624.56;5060313;28;45421;-75
2021/09/07 04:46:39;;;;;;;;;21.00;19.33;;;;;16.73;69.30;101627.44;5058470;28;45457;-74
2021/09/07 04:49:05;;;;;;;;;18.67;16.67;;;;;16.74;69.79;101615.72;5060184;28;45344;-75
2021/09/07 04:51:30;;;;;;;;;22.00;21.00;;;;;16.79;69.10;101620.47;5059450;28;45465;-75
2021/09/07 04:53:58;;;;;;;;;21.67;21.67;;;;;16.83;69.93;101624.44;5059796;28;45312;-75
2021/09/07 04:56:23;;;;;;;;;17.33;17.33;;;;;16.83;69.54;101618.25;5059700;28;45165;-74
2021/09/07 04:58:49;;;;;;;;;19.33;19.00;;;;;16.81;69.23;101622.97;5059698;28;45246;-75
2021/09/07 05:01:14;;;;;;;;;19.67;18.67;;;;;16.85;69.46;101618.88;5059674;28;45260;-74
2021/09/07 05:03:39;;;;;;;;;19.33;19.33;;;;;16.86;69.00;101624.06;5059822;28;45283;-74
2021/09/07 05:06:05;;;;;;;;;20.00;19.00;;;;;16.82;69.31;101624.66;5058312;28;46321;-75
2021/09/07 05:08:30;;;;;;;;;18.00;17.00;;;;;16.78;69.08;101621.50;5059252;28;45247;-75
2021/09/07 05:10:55;;;;;;;;;17.00;16.33;;;;;16.72;69.45;101623.13;5059308;28;45215;-74
2021/09/07 05:13:21;;;;;;;;;18.00;18.00;;;;;16.69;68.95;101628.88;5059760;28;45149;-74
2021/09/07 05:15:46;;;;;;;;;18.00;18.00;;;;;16.63;69.40;101630.47;5058134;28;46195;-74
2021/09/07 05:18:11;;;;;;;;;18.33;18.33;;;;;16.63;69.62;101637.69;5058101;28;48463;-74
2021/09/07 05:20:37;;;;;;;;;17.00;17.00;;;;;16.63;69.89;101632.31;5059367;28;45342;-75
2021/09/07 05:23:03;;;;;;;;;20.67;20.33;;;;;16.66;69.65;101635.47;5059071;28;45319;-75
2021/09/07 05:25:30;;;;;;;;;20.00;19.33;;;;;16.68;69.77;101634.44;5059431;28;45532;-75
2021/09/07 05:27:56;;;;;;;;;20.33;16.33;;;;;16.68;69.70;101635.28;5059169;28;46324;-75
2021/09/07 05:30:21;;;;;;;;;17.67;17.67;;;;;16.66;69.85;101642.66;5068032;28;45314;-74
2021/09/07 05:32:47;;;;;;;;;18.67;18.33;;;;;16.66;69.78;101635.47;5079554;28;45794;-75
2021/09/07 05:35:13;;;;;;;;;23.00;20.00;;;;;16.67;69.95;101638.97;5079295;28;45271;-75
2021/09/07 05:37:39;;;;;;;;;19.33;17.33;;;;;16.68;69.74;101640.63;5079333;28;46154;-75
2021/09/07 05:40:10;;;;;;;;;17.67;17.00;;;;;16.65;69.66;101630.28;5079635;28;45211;-75
2021/09/07 05:42:35;;;;;;;;;17.33;16.67;;;;;16.66;69.57;101632.78;5079861;27;45317;-77
2021/09/07 05:45:01;;;;;;;;;4.33;3.67;;;;;16.66;70.03;101634.63;5083265;28;45492;-76
2021/09/07 05:47:26;;;;;;;;;27.00;25.33;;;;;16.68;69.99;101648.69;5084007;27;46089;-76
2021/09/07 05:49:52;;;;;;;;;19.33;19.33;;;;;16.68;70.18;101645.16;5061222;28;46071;-76
2021/09/07 05:52:17;;;;;;;;;15.67;15.67;;;;;16.62;69.79;101644.94;5062427;28;45259;-76
2021/09/07 05:54:43;;;;;;;;;18.33;17.33;;;;;16.58;70.02;101640.13;5062431;28;45481;-75
2021/09/07 05:57:08;;;;;;;;;21.00;19.67;;;;;16.60;70.34;101649.66;5062286;28;46114;-75
2021/09/07 05:59:33;;;;;;;;;22.00;22.00;;;;;16.58;70.03;101642.81;5060841;28;45251;-74
2021/09/07 06:01:59;;;;;;;;;19.33;19.33;;;;;16.60;70.49;101651.50;5062792;28;45474;-75
2021/09/07 06:04:24;;;;;;;;;19.67;16.00;;;;;16.61;70.85;101651.28;5062639;28;45331;-75
2021/09/07 06:06:51;;;;;;;;;20.67;20.33;;;;;16.61;70.35;101651.28;5062504;28;45224;-75
2021/09/07 06:09:16;;;;;;;;;21.33;18.33;;;;;16.62;70.54;101646.78;5060911;28;45347;-75
2021/09/07 06:11:42;;;;;;;;;18.00;17.00;;;;;16.64;70.49;101653.59;5062218;28;45253;-75
2021/09/07 06:14:08;;;;;;;;;18.33;18.33;;;;;16.68;70.43;101658.59;5061540;28;45458;-76
2021/09/07 06:16:33;;;;;;;;;20.00;20.00;;;;;16.69;70.43;101661.06;5062090;28;46461;-74
2021/09/07 06:18:59;;;;;;;;;23.67;23.00;;;;;16.70;70.56;101643.13;5062361;28;45334;-74
2021/09/07 06:21:24;;;;;;;;;24.33;23.00;;;;;16.76;70.94;101658.47;5061806;28;45583;-76
2021/09/07 06:23:51;;;;;;;;;23.33;21.67;;;;;16.77;70.88;101647.50;5061765;28;45424;-76
2021/09/07 06:26:16;;;;;;;;;18.33;16.67;;;;;16.83;70.70;101651.28;5061849;28;46225;-77
2021/09/07 06:28:43;;;;;;;;;22.33;22.33;;;;;16.87;70.55;101655.25;5060116;28;45415;-77
2021/09/07 06:31:09;;;;;;;;;24.33;23.33;;;;;16.89;70.87;101657.75;5061558;28;45279;-77
2021/09/07 06:33:34;;;;;;;;;17.00;17.00;;;;;16.89;70.64;101652.38;5061462;28;45229;-76
2021/09/07 06:35:59;;;;;;;;;18.33;18.33;;;;;16.91;70.59;101650.31;5061242;28;45262;-76
2021/09/07 06:38:25;;;;;;;;;21.33;17.67;;;;;16.98;71.00;101655.72;5060664;28;45220;-75
2021/09/07 06:40:50;;;;;;;;;24.67;21.67;;;;;17.01;70.55;101649.97;5060887;28;45987;-75
2021/09/07 06:43:16;;;;;;;;;23.00;21.67;;;;;17.07;70.54;101657.28;5059410;28;45999;-75
2021/09/07 06:45:41;;;;;;;;;19.67;18.00;;;;;17.11;70.77;101652.34;5056509;28;47050;-74
2021/09/07 06:48:06;;;;;;;;;24.00;24.00;;;;;17.19;70.59;101659.44;5059429;28;45565;-74
2021/09/07 06:50:32;;;;;;;;;23.33;23.00;;;;;17.25;70.82;101651.44;5061504;28;45296;-75
2021/09/07 06:52:57;;;;;;;;;19.00;19.00;;;;;17.29;70.91;101658.06;5061192;28;45450;-75
2021/09/07 06:55:23;;;;;;;;;21.00;20.67;;;;;17.36;70.78;101658.09;5060594;28;45379;-75
2021/09/07 06:57:48;;;;;;;;;22.33;19.33;;;;;17.40;70.71;101661.22;5061424;28;45351;-77
2021/09/07 07:00:14;;;;;;;;;25.33;24.33;;;;;17.47;69.75;101656.72;5059886;28;45400;-77
2021/09/07 07:02:40;;;;;;;;;19.33;17.67;;;;;17.54;69.59;101662.94;5061211;28;45465;-76
2021/09/07 07:05:07;;;;;;;;;23.33;21.67;;;;;17.61;69.04;101654.94;5061038;28;45333;-77
2021/09/07 07:07:32;;;;;;;;;22.67;20.67;;;;;17.71;69.04;101651.88;5061207;28;45246;-78
2021/09/07 07:09:57;;;;;;;;;23.00;21.67;;;;;17.79;69.08;101653.56;5061193;28;45231;-78
2021/09/07 07:12:23;;;;;;;;;24.00;19.00;;;;;17.84;68.87;101652.97;5060668;28;45768;-77
2021/09/07 07:14:48;;;;;;;;;24.67;24.33;;;;;17.92;69.40;101653.59;5060951;28;45303;-78
2021/09/07 07:17:14;;;;;;;;;22.33;20.67;;;;;18.02;68.85;101653.22;5061872;28;45304;-77
2021/09/07 07:19:39;;;;;;;;;22.00;22.00;;;;;18.10;68.66;101656.75;5060167;28;45288;-75
2021/09/07 07:22:04;;;;;;;;;23.00;22.00;;;;;18.17;68.10;101660.34;5060001;28;45376;-75
2021/09/07 07:24:30;;;;;;;;;22.00;21.67;;;;;18.26;68.68;101664.50;5057642;28;45556;-76
2021/09/07 07:26:55;;;;;;;;;23.33;22.67;;;;;18.35;68.57;101658.94;5057607;28;45315;-77
2021/09/07 07:29:21;;;;;;;;;26.67;23.67;;;;;18.44;68.14;101656.88;5061766;28;45271;-77
2021/09/07 07:31:46;;;;;;;;;35.00;33.00;;;;;18.55;68.18;101664.34;5082436;28;45263;-78
2021/09/07 07:34:11;;;;;;;;;29.00;29.00;;;;;18.61;68.01;101666.22;5080523;28;46265;-76
2021/09/07 07:36:37;;;;;;;;;23.67;23.33;;;;;18.68;67.70;101664.34;5080933;28;45612;-77
2021/09/07 07:39:03;;;;;;;;;23.67;22.67;;;;;18.76;67.58;101673.25;5080924;28;45437;-77
2021/09/07 07:41:29;;;;;;;;;22.33;22.00;;;;;18.77;67.67;101675.72;5083586;28;45559;-75
2021/09/07 07:43:55;;;;;;;;;18.67;18.33;;;;;18.86;68.09;101670.97;5082536;28;45393;-77
2021/09/07 07:46:21;;;;;;;;;23.67;21.67;;;;;18.89;68.11;101669.75;5082022;28;45329;-75
2021/09/07 07:48:47;;;;;;;;;25.00;23.33;;;;;18.95;67.61;101674.31;5083015;28;45348;-77
2021/09/07 07:51:12;;;;;;;;;21.00;20.00;;;;;19.03;68.45;101682.16;5082038;28;45376;-78
2021/09/07 07:53:39;;;;;;;;;34.67;30.00;;;;;19.11;68.28;101677.63;5082087;28;46504;-76
2021/09/07 07:56:05;;;;;;;;;55.75;45.25;;;;;19.19;68.14;101680.13;5080241;28;45301;-77
2021/09/07 07:58:31;;;;;;;;;32.33;29.33;;;;;19.25;68.32;101683.84;5080791;28;45282;-77
2021/09/07 08:00:57;;;;;;;;;34.00;29.00;;;;;19.30;68.14;101687.56;5080340;28;45342;-74
2021/09/07 08:03:22;;;;;;;;;21.67;21.67;;;;;19.36;68.16;101685.88;5079180;28;47161;-78
2021/09/07 08:05:47;;;;;;;;;29.33;28.33;;;;;19.38;68.49;101681.13;5078830;28;45359;-74
2021/09/07 08:08:13;;;;;;;;;28.00;27.00;;;;;19.44;68.17;101687.53;5080195;28;45294;-76
2021/09/07 08:10:39;;;;;;;;;22.67;22.67;;;;;19.51;68.24;101682.94;5080379;27;45437;-75
2021/09/07 08:13:05;;;;;;;;;26.33;26.00;;;;;19.58;68.07;101682.09;5064757;28;45629;-76
2021/09/07 08:15:30;;;;;;;;;32.33;29.67;;;;;19.63;67.57;101687.72;5060027;28;45390;-76
2021/09/07 08:17:55;;;;;;;;;20.67;19.00;;;;;19.72;67.67;101689.09;5060147;28;45390;-75
2021/09/07 08:20:21;;;;;;;;;24.67;22.33;;;;;19.76;67.70;101682.25;5059456;28;45421;-76
2021/09/07 08:22:46;;;;;;;;;21.67;21.67;;;;;19.84;67.32;101685.75;5059874;28;45681;-77
2021/09/07 08:25:12;;;;;;;;;21.00;20.00;;;;;19.91;67.25;101681.97;5059957;28;45286;-77
2021/09/07 08:27:38;;;;;;;;;24.00;24.00;;;;;20.01;66.44;101689.66;5060118;28;45228;-77
2021/09/07 08:30:04;;;;;;;;;20.67;19.33;;;;;20.08;65.67;101686.91;5058160;28;45253;-76
2021/09/07 08:32:30;;;;;;;;;28.33;25.33;;;;;20.16;66.21;101686.66;5057546;28;47420;-76
2021/09/07 08:34:56;;;;;;;;;27.67;27.67;;;;;20.27;66.09;101690.56;5059508;28;45536;-76
2021/09/07 08:37:21;;;;;;;;;71.00;57.00;;;;;20.35;65.38;101680.56;5058150;28;45226;-75
2021/09/07 08:39:46;;;;;;;;;76.75;65.25;;;;;20.44;65.46;101688.16;5059390;28;45449;-74
2021/09/07 08:42:12;;;;;;;;;55.00;43.50;;;;;20.54;65.29;101693.09;5059464;28;47004;-75
2021/09/07 08:44:45;;;;;;;;;51.50;42.25;;;;;20.64;65.69;101689.91;5057573;28;45386;-75
2021/09/07 08:47:14;;;;;;;;;41.00;36.33;;;;;20.72;65.62;101683.41;5058436;28;45616;-77
2021/09/07 08:49:40;;;;;;;;;40.67;34.00;;;;;20.80;66.03;101679.63;5058337;28;45500;-76
2021/09/07 08:52:05;;;;;;;;;24.00;22.67;;;;;20.87;64.82;101690.34;5055624;28;48435;-76
2021/09/07 08:54:31;;;;;;;;;21.33;20.33;;;;;20.97;65.32;101693.41;5058966;28;45331;-76
2021/09/07 08:56:56;;;;;;;;;27.00;25.67;;;;;21.00;65.66;101678.63;5059449;28;45528;-77
2021/09/07 08:59:22;;;;;;;;;31.33;29.33;;;;;21.09;65.20;101690.81;5057944;28;45344;-74
2021/09/07 09:01:52;;;;;;;;;41.00;35.33;;;;;21.15;65.48;101679.13;5058185;28;45382;-75
2021/09/07 09:04:29;;;;;;;;;45.33;36.67;;;;;21.19;65.53;101684.91;5057044;28;45469;-74
2021/09/07 09:06:55;;;;;;;;;42.67;37.00;;;;;21.24;65.87;101698.56;5058780;28;45287;-74
2021/09/07 09:09:20;;;;;;;;;39.67;32.67;;;;;21.28;65.63;101691.66;5059280;28;45318;-74
2021/09/07 09:11:54;;;;;;;;;26.00;25.00;;;;;21.36;64.62;101689.72;5058092;28;45407;-74
2021/09/07 09:14:35;;;;;;;;;19.67;19.67;;;;;21.48;61.68;101682.53;5057692;28;46261;-77
2021/09/07 09:17:03;;;;;;;;;22.00;21.67;;;;;21.65;61.78;101688.16;5058139;28;45403;-77
2021/09/07 09:19:58;;;;;;;;;25.00;20.67;;;;;21.77;61.84;101682.84;5059817;28;46568;-76
2021/09/07 09:22:58;;;;;;;;;20.00;19.00;;;;;21.99;60.42;101685.06;5060726;28;45328;-74
2021/09/07 09:25:26;;;;;;;;;21.67;19.33;;;;;22.14;59.18;101676.53;5061511;28;45288;-74
2021/09/07 09:27:55;;;;;;;;;14.67;12.00;;;;;22.27;58.68;101682.81;5061387;28;45315;-74
2021/09/07 09:30:32;;;;;;;;;18.00;18.00;;;;;22.37;58.24;101679.53;5070862;28;45440;-75
2021/09/07 09:33:00;;;;;;;;;21.00;21.00;;;;;22.52;57.29;101679.13;5082774;28;45369;-74
2021/09/07 09:35:27;;;;;;;;;24.33;24.00;;;;;22.64;55.97;101673.75;5082476;28;45224;-75
2021/09/07 09:37:56;;;;;;;;;22.33;22.33;;;;;22.80;55.57;101680.34;5065184;28;45516;-75
2021/09/07 09:40:22;;;;;;;;;18.33;18.00;;;;;22.91;55.34;101668.72;5060905;28;47065;-75
2021/09/07 09:42:48;;;;;;;;;19.67;18.00;;;;;23.06;55.10;101673.66;5060663;28;46216;-77
2021/09/07 09:45:15;;;;;;;;;19.67;17.00;;;;;23.19;55.18;101671.75;5062668;28;45339;-77
2021/09/07 09:47:51;;;;;;;;;18.00;17.00;;;;;23.26;55.05;101652.66;5065289;28;45484;-76
2021/09/07 09:50:18;;;;;;;;;15.33;15.00;;;;;23.44;54.15;101659.88;5062229;28;46439;-77
2021/09/07 09:52:46;;;;;;;;;20.33;19.67;;;;;23.63;52.76;101665.13;5060419;28;46365;-76
2021/09/07 09:55:13;;;;;;;;;16.00;16.00;;;;;23.78;51.79;101664.59;5061998;28;45295;-74
2021/09/07 09:57:39;;;;;;;;;19.00;19.00;;;;;23.97;52.00;101659.78;5060821;28;45248;-75
2021/09/07 10:00:11;;;;;;;;;20.00;17.33;;;;;24.16;51.73;101655.03;5061387;28;45523;-74
2021/09/07 10:02:37;;;;;;;;;19.00;19.00;;;;;24.29;52.10;101653.91;5059961;28;48391;-74
2021/09/07 10:05:04;;;;;;;;;15.67;15.67;;;;;24.46;51.76;101656.59;5061776;28;45311;-75
2021/09/07 10:07:30;;;;;;;;;18.00;17.67;;;;;24.62;52.14;101654.16;5060777;28;45354;-74
2021/09/07 10:09:57;;;;;;;;;19.33;19.33;;;;;24.83;51.66;101651.75;5058771;28;46059;-74
2021/09/07 10:12:23;;;;;;;;;18.00;17.67;;;;;24.99;51.52;101654.72;5058394;28;47354;-74
2021/09/07 10:15:23;;;;;;;;;20.67;19.33;;;;;25.13;51.40;101647.84;5061801;28;45365;-75
2021/09/07 10:17:51;;;;;;;;;18.00;18.00;;;;;25.32;50.39;101648.38;5060450;28;45674;-74
2021/09/07 10:20:48;;;;;;;;;18.33;17.33;;;;;25.50;49.82;101640.97;5060183;28;45469;-74
2021/09/07 10:23:35;;;;;;;;;19.00;19.00;;;;;25.70;49.79;101645.03;5059902;28;46068;-76
2021/09/07 10:26:01;;;;;;;;;19.33;18.00;;;;;25.89;49.17;101637.34;5059986;28;45699;-77
2021/09/07 10:28:29;;;;;;;;;16.33;16.33;;;;;26.06;47.77;101641.84;5061207;28;45346;-77
2021/09/07 10:31:07;;;;;;;;;16.33;16.00;;;;;26.27;48.62;101637.41;5060063;28;45406;-74
2021/09/07 10:33:38;;;;;;;;;17.00;17.00;;;;;26.46;47.91;101637.06;5061312;28;46273;-75
2021/09/07 10:36:25;;;;;;;;;18.67;17.00;;;;;26.65;47.53;101632.03;5061176;28;45337;-76
2021/09/07 10:38:59;;;;;;;;;22.33;22.33;;;;;26.81;47.52;101627.47;5061568;28;45236;-75
2021/09/07 10:41:33;;;;;;;;;18.67;18.67;;;;;26.95;45.12;101622.41;5061456;28;45197;-75
2021/09/07 10:44:05;;;;;;;;;20.33;20.00;;;;;27.11;46.68;101617.03;5059745;28;47414;-78
2021/09/07 10:46:40;;;;;;;;;20.67;19.67;;;;;27.27;45.66;101611.66;5061150;28;45319;-75
2021/09/07 10:49:24;;;;;;;;;16.67;16.67;;;;;27.43;45.67;101610.63;5061428;28;45493;-75
2021/09/07 10:52:13;;;;;;;;;15.00;14.67;;;;;27.59;45.30;101608.75;5062440;28;45255;-75
2021/09/07 10:54:42;;;;;;;;;17.67;17.67;;;;;27.73;43.97;101600.91;5058702;28;48383;-75
2021/09/07 10:57:09;;;;;;;;;17.33;16.33;;;;;27.85;42.55;101580.69;5060956;28;45349;-74
2021/09/07 11:00:09;;;;;;;;;15.67;15.33;;;;;27.98;43.91;101584.78;5061284;28;45366;-75
2021/09/07 11:02:42;;;;;;;;;21.00;20.00;;;;;28.05;42.46;101582.63;5049974;28;45619;-75
2021/09/07 11:05:36;;;;;;;;;15.33;15.33;;;;;28.13;43.55;101572.25;5060446;28;45177;-75
2021/09/07 11:08:03;;;;;;;;;16.67;16.00;;;;;28.28;43.29;101585.88;5060956;28;45372;-75